MYGF Airport Information

Runway Information
Runway 06 Length 11019 ft width 151 ft
Elevation 6 ft Threshold 0 ft Heading 61
Runway 24 Length 11019 ft Width 151 ft
Elevation 7 ft Threshold 0 ft Heading 241
Airport Frequencies
Type APP Name APP Frequency 126.5 MHZ
Type GND Name GND Frequency 121.7 MHZ
Type TWR Name TWR Frequency 118.5 MHZ
Airport Navaids
Type VOR-DME Name Freeport Frequency 113200 KHZ
Type NDB Name Freeport Frequency 209 KHZ
Airport Weather Information & NOTAM
ADDS - METARS form results

(0625 UTC 18 October 2019)
Data provider http://aviationweather.gov/metar/data/
 
Forecast for: MYGF (FREEPORT INTL A , BS)
Text: MYGF 180430Z 1806/1906 VRB15KT 4800 TSRA SCT015CB BKN060
Forecast period: 0600 UTC 18 October 2019 to 0600 UTC 19 October 2019
Forecast type: FROM: standard forecast or significant change
Winds: variable direction winds at 17 MPH (15 knots; 7.7 m/s)
Visibility: 2.98 miles (4.80 km)
Ceiling: 6000 feet AGL
Clouds: scattered clouds at 1500 feet AGL
broken clouds at 6000 feet AGL
Weather: TSRA  (rain associated with thunderstorm(s))
Text: PROB30
Forecast period: 2000 UTC 18 October 2019 to 0100 UTC 19 October 2019
Forecast type: TEMPORARY: The following changes expected for less than half the time period
Winds: variable direction winds at 17 MPH (15 knots; 7.7 m/s)
Visibility: 5 miles (8 km)
Ceiling: 6000 feet AGL
Clouds: few clouds at 1500 feet AGL
broken clouds at 6000 feet AGL
Weather: SHRA  (rain showers)